createdAt,value
2022-10-20T00:02:04.926Z,2.90
2022-10-20T00:04:33.456Z,2.60
2022-10-20T00:07:01.513Z,2.80
2022-10-20T00:09:29.576Z,2.50
2022-10-20T00:11:57.677Z,2.77
2022-10-20T00:14:25.774Z,3.30
2022-10-20T00:16:53.870Z,2.67
2022-10-20T00:19:23.328Z,2.77
2022-10-20T00:21:51.359Z,2.70
2022-10-20T00:24:20.851Z,2.50
2022-10-20T00:26:49.030Z,3.00
2022-10-20T00:31:46.064Z,2.53
2022-10-20T00:34:14.101Z,2.60
2022-10-20T00:36:46.324Z,2.90
2022-10-20T00:39:16.997Z,2.40
2022-10-20T00:41:45.117Z,2.90
2022-10-20T00:44:54.623Z,2.63
2022-10-20T00:47:26.903Z,2.60
2022-10-20T00:49:57.804Z,3.40
2022-10-20T00:52:27.260Z,2.57
2022-10-20T00:54:55.307Z,3.10
2022-10-20T00:57:23.443Z,3.20
2022-10-20T00:59:51.531Z,2.63
2022-10-20T01:02:19.673Z,2.60
2022-10-20T01:04:47.754Z,2.70
2022-10-20T01:07:24.566Z,2.60
2022-10-20T01:09:53.978Z,2.90
2022-10-20T01:12:27.580Z,2.53
2022-10-20T01:14:59.113Z,3.00
2022-10-20T01:17:31.084Z,2.80
2022-10-20T01:20:19.936Z,2.60
2022-10-20T01:23:19.573Z,2.60
2022-10-20T01:25:57.043Z,2.70
2022-10-20T01:28:28.201Z,2.40
2022-10-20T01:30:58.775Z,2.90
2022-10-20T01:33:32.065Z,2.43
2022-10-20T01:36:02.835Z,2.53
2022-10-20T01:38:34.434Z,2.57
2022-10-20T01:41:03.989Z,3.07
2022-10-20T01:43:35.603Z,2.50
2022-10-20T01:46:03.739Z,2.50
2022-10-20T01:48:40.053Z,2.53
2022-10-20T01:51:17.214Z,2.43
2022-10-20T01:53:45.269Z,2.83
2022-10-20T01:56:15.633Z,2.33
2022-10-20T01:59:09.393Z,2.40
2022-10-20T02:01:50.495Z,2.50
2022-10-20T02:04:18.777Z,2.40
2022-10-20T02:06:49.957Z,2.87
2022-10-20T02:09:19.180Z,2.37
2022-10-20T02:11:49.880Z,2.60
2022-10-20T02:14:19.764Z,3.07
2022-10-20T02:16:48.776Z,2.50
2022-10-20T02:19:18.776Z,2.80
2022-10-20T02:21:46.865Z,3.13
2022-10-20T02:24:14.998Z,2.70
2022-10-20T02:26:43.070Z,2.97
2022-10-20T02:29:14.557Z,2.97
2022-10-20T02:31:44.098Z,2.90
2022-10-20T02:34:12.414Z,2.87
2022-10-20T02:36:42.051Z,2.50
2022-10-20T02:39:10.215Z,2.20
2022-10-20T02:41:38.436Z,2.87
2022-10-20T02:44:06.631Z,3.00
2022-10-20T02:46:34.736Z,3.17
2022-10-20T02:49:04.187Z,3.00
2022-10-20T02:51:32.226Z,2.90
2022-10-20T02:54:00.268Z,2.63
2022-10-20T02:56:30.915Z,2.83
2022-10-20T02:58:59.324Z,2.97
2022-10-20T03:01:29.692Z,3.20
2022-10-20T03:03:59.852Z,2.60
2022-10-20T03:06:29.414Z,2.57
2022-10-20T03:08:57.571Z,2.90
2022-10-20T03:11:25.761Z,2.60
2022-10-20T03:13:53.791Z,2.70
2022-10-20T03:16:21.859Z,2.63
2022-10-20T03:18:49.956Z,3.00
2022-10-20T03:21:20.433Z,2.23
2022-10-20T03:24:00.573Z,3.00
2022-10-20T03:26:28.652Z,2.67
2022-10-20T03:28:56.697Z,2.63
2022-10-20T03:31:24.773Z,2.63
2022-10-20T03:33:52.791Z,2.47
2022-10-20T03:36:20.838Z,2.47
2022-10-20T03:38:50.899Z,2.80
2022-10-20T03:41:18.971Z,2.90
2022-10-20T03:43:47.023Z,2.70
2022-10-20T03:46:15.073Z,3.00
2022-10-20T03:48:43.174Z,2.43
2022-10-20T03:51:12.106Z,2.80
2022-10-20T03:53:40.533Z,3.07
2022-10-20T03:56:10.598Z,3.00
2022-10-20T03:58:38.670Z,2.70
2022-10-20T04:01:09.291Z,3.03
2022-10-20T04:03:37.362Z,2.57
2022-10-20T04:06:05.734Z,2.60
2022-10-20T04:08:33.876Z,2.60
2022-10-20T04:11:02.083Z,2.97
2022-10-20T04:13:31.573Z,3.00
2022-10-20T04:16:00.015Z,3.07
2022-10-20T04:18:28.151Z,3.07
2022-10-20T04:20:56.190Z,2.60
2022-10-20T04:23:24.235Z,2.93
2022-10-20T04:25:52.322Z,2.97
2022-10-20T04:28:20.918Z,2.47
2022-10-20T04:30:50.354Z,3.00
2022-10-20T04:33:18.442Z,2.60
2022-10-20T04:38:17.229Z,3.10
2022-10-20T04:40:45.311Z,2.73
2022-10-20T04:43:13.416Z,3.10
2022-10-20T04:45:41.515Z,3.07
2022-10-20T04:48:18.559Z,3.20
2022-10-20T04:50:46.645Z,2.70
2022-10-20T04:53:14.695Z,3.00
2022-10-20T04:55:42.842Z,3.20
2022-10-20T04:58:10.914Z,3.33
2022-10-20T05:00:39.428Z,3.30
2022-10-20T05:03:07.929Z,3.07
2022-10-20T05:05:37.468Z,2.70
2022-10-20T05:08:05.814Z,2.83
2022-10-20T05:10:36.599Z,3.20
2022-10-20T05:13:07.925Z,2.63
2022-10-20T05:15:35.975Z,3.20
2022-10-20T05:18:04.066Z,2.80
2022-10-20T05:20:40.915Z,3.03
2022-10-20T05:23:10.824Z,3.00
2022-10-20T05:25:39.030Z,3.00
2022-10-20T05:28:07.335Z,2.87
2022-10-20T05:30:46.346Z,3.00
2022-10-20T05:33:14.424Z,2.80
2022-10-20T05:35:42.473Z,3.23
2022-10-20T05:38:12.036Z,2.70
2022-10-20T05:40:40.154Z,3.07
2022-10-20T05:43:08.272Z,2.63
2022-10-20T05:45:36.345Z,2.70
2022-10-20T05:48:12.080Z,3.33
2022-10-20T05:50:43.226Z,3.37
2022-10-20T05:53:12.704Z,2.70
2022-10-20T05:55:40.811Z,3.00
2022-10-20T05:58:08.913Z,2.50
2022-10-20T06:00:41.863Z,3.20
2022-10-20T06:03:09.950Z,3.00
2022-10-20T06:05:38.186Z,3.10
2022-10-20T06:08:09.272Z,2.83
2022-10-20T06:10:38.702Z,3.13
2022-10-20T06:13:06.830Z,2.83
2022-10-20T06:15:34.923Z,3.47
2022-10-20T06:18:03.039Z,3.43
2022-10-20T06:20:31.123Z,2.80
2022-10-20T06:22:59.203Z,2.60
2022-10-20T06:25:33.318Z,2.53
2022-10-20T06:28:02.799Z,2.90
2022-10-20T06:30:30.966Z,3.17
2022-10-20T06:32:58.999Z,3.10
2022-10-20T06:35:27.086Z,2.57
2022-10-20T06:37:55.169Z,2.77
2022-10-20T06:40:23.253Z,3.17
2022-10-20T06:42:57.087Z,2.80
2022-10-20T06:45:26.625Z,3.20
2022-10-20T06:47:54.658Z,2.73
2022-10-20T06:50:22.722Z,2.90
2022-10-20T06:52:50.861Z,2.70
2022-10-20T06:55:18.960Z,3.27
2022-10-20T06:57:47.177Z,2.77
2022-10-20T07:00:16.216Z,3.10
2022-10-20T07:02:45.757Z,2.80
2022-10-20T07:05:13.872Z,2.60
2022-10-20T07:07:42.118Z,3.00
2022-10-20T07:10:10.861Z,2.77
2022-10-20T07:12:39.227Z,2.90
2022-10-20T07:15:15.802Z,2.80
2022-10-20T07:17:45.255Z,2.80
2022-10-20T07:20:13.431Z,3.00
2022-10-20T07:22:41.489Z,3.00
2022-10-20T07:25:09.879Z,2.60
2022-10-20T07:27:37.938Z,2.70
2022-10-20T07:30:06.760Z,3.63
2022-10-20T07:32:35.339Z,3.17
2022-10-20T07:35:05.169Z,3.00
2022-10-20T07:37:43.382Z,2.93
2022-10-20T07:40:12.861Z,3.13
2022-10-20T07:42:40.981Z,3.40
2022-10-20T07:45:10.121Z,2.73
2022-10-20T07:47:38.455Z,3.23
2022-10-20T07:50:10.676Z,3.50
2022-10-20T07:52:39.112Z,3.00
2022-10-20T07:55:17.679Z,3.00
2022-10-20T07:57:55.878Z,3.30
2022-10-20T08:00:24.098Z,3.00
2022-10-20T08:02:52.241Z,3.10
2022-10-20T08:05:21.732Z,3.20
2022-10-20T08:07:49.765Z,3.30
2022-10-20T08:10:17.868Z,2.90
2022-10-20T08:12:46.014Z,3.00
2022-10-20T08:15:16.997Z,3.00
2022-10-20T08:17:45.163Z,3.47
2022-10-20T08:20:22.469Z,3.10
2022-10-20T08:22:54.440Z,3.20
2022-10-20T08:25:22.571Z,3.43
2022-10-20T08:30:29.806Z,3.27
2022-10-20T08:32:57.910Z,3.50
2022-10-20T08:35:26.078Z,3.10
2022-10-20T08:37:55.604Z,3.43
2022-10-20T08:40:25.626Z,3.23
2022-10-20T08:42:53.780Z,3.50
2022-10-20T08:45:22.475Z,3.63
2022-10-20T08:47:51.504Z,3.00
2022-10-20T08:50:19.830Z,3.20
2022-10-20T08:52:48.053Z,3.20
2022-10-20T08:57:55.946Z,2.80
2022-10-20T09:00:25.301Z,3.20
2022-10-20T09:03:04.977Z,2.90
2022-10-20T09:05:33.147Z,3.73
2022-10-20T09:08:01.363Z,3.40
2022-10-20T09:10:36.271Z,3.23
2022-10-20T09:13:07.020Z,3.27
2022-10-20T09:15:35.123Z,2.90
2022-10-20T09:18:04.863Z,3.17
2022-10-20T09:20:35.252Z,3.40
2022-10-20T09:23:07.861Z,3.80
2022-10-20T09:25:46.308Z,3.00
2022-10-20T09:28:21.599Z,2.83
2022-10-20T09:30:49.691Z,3.57
2022-10-20T09:33:28.235Z,3.40
2022-10-20T09:35:57.606Z,3.33
2022-10-20T09:38:29.576Z,3.13
2022-10-20T09:41:04.137Z,3.50
2022-10-20T09:43:32.187Z,3.47
2022-10-20T09:46:01.479Z,3.20
2022-10-20T09:48:30.280Z,3.20
2022-10-20T09:50:58.776Z,3.60
2022-10-20T09:53:28.640Z,3.33
2022-10-20T09:55:56.727Z,2.80
2022-10-20T09:58:30.312Z,3.20
2022-10-20T10:01:00.325Z,3.40
2022-10-20T10:03:28.657Z,3.00
2022-10-20T10:05:57.184Z,3.13
2022-10-20T10:08:26.133Z,3.60
2022-10-20T10:11:04.525Z,3.10
2022-10-20T10:16:25.291Z,3.63
2022-10-20T10:18:58.257Z,3.63
2022-10-20T10:21:26.360Z,3.13
2022-10-20T10:23:55.452Z,3.17
2022-10-20T10:26:43.766Z,3.50
2022-10-20T10:29:19.503Z,3.70
2022-10-20T10:31:51.279Z,3.10
2022-10-20T10:34:44.090Z,3.50
2022-10-20T10:37:13.550Z,3.80
2022-10-20T10:39:41.609Z,3.23
2022-10-20T10:42:32.636Z,3.03
2022-10-20T10:45:08.789Z,3.27
2022-10-20T10:47:50.040Z,3.63
2022-10-20T10:50:27.392Z,3.50
2022-10-20T10:53:00.269Z,3.57
2022-10-20T10:55:47.868Z,3.27
2022-10-20T10:58:22.793Z,3.67
2022-10-20T11:00:55.750Z,3.50
2022-10-20T11:03:37.740Z,3.87
2022-10-20T11:06:31.681Z,3.47
2022-10-20T11:09:05.205Z,3.30
2022-10-20T11:11:45.296Z,3.20
2022-10-20T11:14:20.519Z,3.40
2022-10-20T11:16:54.137Z,3.50
2022-10-20T11:19:52.796Z,3.13
2022-10-20T11:22:25.798Z,3.67
2022-10-20T11:24:58.171Z,3.73
2022-10-20T11:27:26.913Z,3.80
2022-10-20T11:30:00.047Z,3.40
2022-10-20T11:32:30.550Z,2.90
2022-10-20T11:35:02.684Z,3.80
2022-10-20T11:37:31.627Z,3.43
2022-10-20T11:40:07.638Z,3.80
2022-10-20T11:42:38.753Z,3.67
2022-10-20T11:45:27.615Z,3.17
2022-10-20T11:48:03.973Z,3.77
2022-10-20T11:50:32.065Z,3.50
2022-10-20T11:53:13.204Z,3.40
2022-10-20T11:56:09.719Z,3.00
2022-10-20T11:58:54.336Z,3.33
2022-10-20T12:01:32.169Z,4.10
2022-10-20T12:04:17.124Z,3.10
2022-10-20T12:07:04.774Z,3.80
2022-10-20T12:09:56.358Z,3.77
2022-10-20T12:12:28.673Z,3.73
2022-10-20T12:14:57.954Z,4.10
2022-10-20T12:17:30.835Z,3.40
2022-10-20T12:20:38.073Z,3.87
2022-10-20T12:23:07.470Z,3.70
2022-10-20T12:25:40.834Z,3.63
2022-10-20T12:28:33.894Z,3.80
2022-10-20T12:31:02.254Z,4.30
2022-10-20T12:33:51.871Z,3.63
2022-10-20T12:36:30.003Z,4.03
2022-10-20T12:39:14.996Z,3.70
2022-10-20T12:42:00.981Z,4.03
2022-10-20T12:44:30.452Z,3.87
2022-10-20T12:46:59.638Z,3.63
2022-10-20T12:49:30.969Z,3.80
2022-10-20T12:51:59.380Z,3.50
2022-10-20T12:54:34.559Z,3.23
2022-10-20T12:57:07.187Z,3.93
2022-10-20T12:59:40.115Z,4.20
2022-10-20T13:02:45.459Z,3.50
2022-10-20T13:05:43.559Z,3.73
2022-10-20T13:08:36.101Z,3.43
2022-10-20T13:11:41.479Z,3.73
2022-10-20T13:14:46.971Z,3.17
2022-10-20T13:17:21.152Z,3.93
2022-10-20T13:19:50.262Z,4.30
2022-10-20T13:22:35.669Z,3.80
2022-10-20T13:25:05.213Z,4.30
2022-10-20T13:27:33.350Z,4.40
2022-10-20T13:30:02.858Z,4.07
2022-10-20T13:33:02.013Z,3.50
2022-10-20T13:35:38.737Z,4.20
2022-10-20T13:38:09.395Z,4.40
2022-10-20T13:40:42.859Z,4.63
2022-10-20T13:43:25.456Z,4.03
2022-10-20T13:46:10.090Z,4.27
2022-10-20T13:48:46.098Z,4.30
2022-10-20T13:51:19.783Z,4.67
2022-10-20T13:53:50.139Z,3.93
2022-10-20T13:56:23.252Z,4.60
2022-10-20T13:59:05.534Z,4.00
2022-10-20T14:01:36.408Z,4.10
2022-10-20T14:04:15.703Z,4.37
2022-10-20T14:06:43.795Z,4.90
2022-10-20T14:09:16.013Z,4.50
2022-10-20T14:11:44.374Z,4.67
2022-10-20T14:14:14.794Z,5.30
2022-10-20T14:16:47.441Z,4.00
2022-10-20T14:19:15.531Z,4.10
2022-10-20T14:21:58.604Z,4.37
2022-10-20T14:24:33.910Z,4.20
2022-10-20T14:27:02.664Z,4.20
2022-10-20T14:29:31.210Z,4.37
2022-10-20T14:32:00.716Z,4.93
2022-10-20T14:34:31.581Z,4.30
2022-10-20T14:36:59.801Z,4.50
2022-10-20T14:39:35.273Z,4.30
2022-10-20T14:42:22.747Z,4.77
2022-10-20T14:48:20.941Z,4.50
2022-10-20T14:51:11.384Z,4.33
2022-10-20T14:53:42.511Z,4.97
2022-10-20T14:56:23.553Z,4.50
2022-10-20T14:58:57.981Z,5.10
2022-10-20T15:01:28.744Z,4.67
2022-10-20T15:06:37.019Z,4.10
2022-10-20T15:09:05.338Z,4.30
2022-10-20T15:11:33.536Z,4.07
2022-10-20T15:14:01.618Z,4.00
2022-10-20T15:16:35.696Z,4.50
2022-10-20T15:19:29.303Z,4.23
2022-10-20T15:22:02.892Z,4.00
2022-10-20T15:24:31.013Z,4.03
2022-10-20T15:27:02.983Z,4.37
2022-10-20T15:29:31.038Z,4.63
2022-10-20T15:31:59.658Z,4.17
2022-10-20T15:34:36.553Z,4.70
2022-10-20T15:37:05.030Z,4.33
2022-10-20T15:39:33.135Z,4.13
2022-10-20T15:42:01.288Z,4.43
2022-10-20T15:44:29.369Z,4.33
2022-10-20T15:46:57.485Z,4.37
2022-10-20T15:49:25.562Z,4.53
2022-10-20T15:51:55.017Z,4.00
2022-10-20T15:54:23.481Z,4.70
2022-10-20T15:56:51.748Z,4.30
2022-10-20T15:59:19.837Z,3.97
2022-10-20T16:01:48.333Z,4.30
2022-10-20T16:04:22.340Z,4.40
2022-10-20T16:06:52.948Z,4.70
2022-10-20T16:09:22.640Z,4.30
2022-10-20T16:11:50.844Z,4.57
2022-10-20T16:14:18.850Z,4.50
2022-10-20T16:16:47.026Z,3.73
2022-10-20T16:19:15.119Z,4.43
2022-10-20T16:21:43.217Z,3.93
2022-10-20T16:24:11.547Z,3.93
2022-10-20T16:26:41.025Z,4.23
2022-10-20T16:29:09.067Z,4.50
2022-10-20T16:31:37.122Z,4.60
2022-10-20T16:34:05.166Z,4.80
2022-10-20T16:36:33.748Z,4.70
2022-10-20T16:39:01.900Z,4.00
2022-10-20T16:41:29.988Z,4.97
2022-10-20T16:44:01.222Z,4.77
2022-10-20T16:46:29.657Z,4.90
2022-10-20T16:48:57.759Z,4.27
2022-10-20T16:51:25.827Z,4.60
2022-10-20T16:53:57.305Z,4.30
2022-10-20T16:56:27.673Z,4.50
2022-10-20T16:58:55.758Z,4.57
2022-10-20T17:01:25.261Z,4.10
2022-10-20T17:03:53.967Z,4.60
2022-10-20T17:06:23.165Z,4.93
2022-10-20T17:08:51.326Z,5.20
2022-10-20T17:11:20.804Z,4.53
2022-10-20T17:14:05.114Z,4.77
2022-10-20T17:16:35.233Z,5.03
2022-10-20T17:19:03.680Z,4.80
2022-10-20T17:21:32.150Z,4.60
2022-10-20T17:24:00.309Z,4.80
2022-10-20T17:26:30.369Z,4.60
2022-10-20T17:28:59.115Z,4.97
2022-10-20T17:31:38.097Z,4.80
2022-10-20T17:34:07.547Z,4.97
2022-10-20T17:36:35.666Z,5.10
2022-10-20T17:39:05.639Z,4.83
2022-10-20T17:41:33.860Z,5.00
2022-10-20T17:44:02.070Z,4.80
2022-10-20T17:46:30.304Z,4.93
2022-10-20T17:48:58.358Z,5.50
2022-10-20T17:51:30.426Z,4.63
2022-10-20T17:54:01.723Z,4.97
2022-10-20T17:56:31.448Z,5.10
2022-10-20T17:59:00.063Z,5.23
2022-10-20T18:01:29.744Z,4.60
2022-10-20T18:03:58.662Z,4.97
2022-10-20T18:06:33.574Z,4.60
2022-10-20T18:09:03.719Z,5.13
2022-10-20T18:11:32.655Z,5.67
2022-10-20T18:14:01.015Z,5.20
2022-10-20T18:16:29.738Z,5.30
2022-10-20T18:21:32.928Z,4.90
2022-10-20T18:24:02.527Z,5.10
2022-10-20T18:26:30.718Z,4.83
2022-10-20T18:28:59.073Z,5.30
2022-10-20T18:31:29.247Z,5.53
2022-10-20T18:34:02.535Z,4.67
2022-10-20T18:36:36.937Z,4.87
2022-10-20T18:39:07.319Z,4.93
2022-10-20T18:41:40.498Z,6.00
2022-10-20T18:44:10.037Z,5.20
2022-10-20T18:46:38.165Z,5.00
2022-10-20T18:49:07.082Z,5.20
2022-10-20T18:51:36.761Z,4.70
2022-10-20T18:56:49.290Z,5.30
2022-10-20T18:59:20.410Z,5.20
2022-10-20T19:01:49.165Z,5.60
2022-10-20T19:04:17.325Z,4.83
2022-10-20T19:06:47.317Z,5.10
2022-10-20T19:09:15.979Z,5.03
2022-10-20T19:11:44.245Z,4.70
2022-10-20T19:14:12.554Z,6.03
2022-10-20T19:16:41.086Z,5.43
2022-10-20T19:19:09.149Z,5.40
2022-10-20T19:21:37.339Z,5.50
2022-10-20T19:24:07.659Z,4.90
2022-10-20T19:26:40.038Z,5.77
2022-10-20T19:29:09.169Z,5.10
2022-10-20T19:31:39.234Z,4.90
2022-10-20T19:34:08.508Z,5.20
2022-10-20T19:36:36.714Z,5.27
2022-10-20T19:39:06.891Z,4.43
2022-10-20T19:41:34.937Z,5.07
2022-10-20T19:44:03.306Z,5.10
2022-10-20T19:46:31.416Z,5.10
2022-10-20T19:49:00.017Z,4.90
2022-10-20T19:51:31.613Z,5.43
2022-10-20T19:53:59.715Z,5.20
2022-10-20T19:56:29.205Z,5.07
2022-10-20T19:58:57.310Z,5.53
2022-10-20T20:01:25.500Z,5.43
2022-10-20T20:03:53.638Z,5.53
2022-10-20T20:06:22.028Z,5.50
2022-10-20T20:08:53.961Z,5.10
2022-10-20T20:11:27.119Z,5.33
2022-10-20T20:13:57.997Z,5.33
2022-10-20T20:16:26.221Z,5.57
2022-10-20T20:18:54.273Z,5.67
2022-10-20T20:21:22.945Z,5.63
2022-10-20T20:23:59.303Z,5.37
2022-10-20T20:26:27.815Z,5.30
2022-10-20T20:28:57.363Z,5.23
2022-10-20T20:31:25.465Z,4.80
2022-10-20T20:33:53.616Z,4.80
2022-10-20T20:36:21.748Z,5.93
2022-10-20T20:38:52.603Z,5.00
2022-10-20T20:41:24.598Z,4.60
2022-10-20T20:43:52.815Z,5.47
2022-10-20T20:46:23.098Z,5.10
2022-10-20T20:48:51.542Z,5.20
2022-10-20T20:51:19.643Z,5.10
2022-10-20T20:53:47.853Z,5.30
2022-10-20T20:56:16.647Z,5.37
2022-10-20T20:58:45.317Z,5.77
2022-10-20T21:01:14.712Z,4.50
2022-10-20T21:03:44.328Z,5.33
2022-10-20T21:06:13.536Z,5.13
2022-10-20T21:08:42.345Z,4.90
2022-10-20T21:11:11.321Z,4.40
2022-10-20T21:13:39.535Z,5.23
2022-10-20T21:16:12.450Z,4.70
2022-10-20T21:18:40.731Z,4.47
2022-10-20T21:23:40.073Z,5.40
2022-10-20T21:26:08.377Z,4.40
2022-10-20T21:28:36.650Z,4.63
2022-10-20T21:31:05.623Z,4.13
2022-10-20T21:33:33.930Z,4.43
2022-10-20T21:36:02.441Z,5.27
2022-10-20T21:38:32.548Z,4.70
2022-10-20T21:41:04.447Z,4.93
2022-10-20T21:43:32.783Z,4.50
2022-10-20T21:46:13.354Z,4.30
2022-10-20T21:48:41.537Z,4.60
2022-10-20T21:51:10.780Z,4.80
2022-10-20T21:53:40.434Z,5.20
2022-10-20T21:56:08.811Z,5.43
2022-10-20T21:58:36.959Z,4.43
2022-10-20T22:01:10.916Z,5.10
2022-10-20T22:03:39.725Z,4.83
2022-10-20T22:06:08.061Z,4.40
2022-10-20T22:08:48.436Z,4.30
2022-10-20T22:11:17.462Z,4.57
2022-10-20T22:13:45.571Z,4.47
2022-10-20T22:16:14.662Z,4.53
2022-10-20T22:18:42.751Z,4.90
2022-10-20T22:21:13.456Z,4.37
2022-10-20T22:23:41.832Z,4.30
2022-10-20T22:26:26.778Z,5.10
2022-10-20T22:28:54.860Z,4.87
2022-10-20T22:31:23.485Z,4.70
2022-10-20T22:33:51.753Z,4.90
2022-10-20T22:36:19.887Z,4.67
2022-10-20T22:38:48.133Z,4.20
2022-10-20T22:41:16.407Z,4.40
2022-10-20T22:43:45.846Z,4.87
2022-10-20T22:46:13.991Z,4.60
2022-10-20T22:48:42.074Z,4.90
2022-10-20T22:51:10.496Z,4.60
2022-10-20T22:53:38.863Z,4.93
2022-10-20T22:56:08.472Z,4.80
2022-10-20T22:58:36.622Z,4.50
2022-10-20T23:01:09.253Z,4.10
2022-10-20T23:03:37.385Z,4.50
2022-10-20T23:06:09.311Z,4.67
2022-10-20T23:08:41.334Z,4.80
2022-10-20T23:11:09.434Z,4.63
2022-10-20T23:13:37.503Z,4.57
2022-10-20T23:16:05.795Z,4.57
2022-10-20T23:18:35.381Z,4.40
2022-10-20T23:21:03.593Z,4.80
2022-10-20T23:23:32.470Z,4.40
2022-10-20T23:26:03.722Z,4.33
2022-10-20T23:28:32.915Z,4.53
2022-10-20T23:31:08.218Z,3.73
2022-10-20T23:33:37.745Z,4.30
2022-10-20T23:36:06.041Z,4.60
2022-10-20T23:38:34.157Z,4.23
2022-10-20T23:41:02.197Z,4.60
2022-10-20T23:43:30.374Z,4.53
2022-10-20T23:45:58.574Z,4.20
2022-10-20T23:48:26.613Z,4.27
2022-10-20T23:50:56.027Z,4.30
2022-10-20T23:53:25.014Z,4.40
2022-10-20T23:55:53.316Z,5.30
2022-10-20T23:58:22.740Z,4.63
